Time;durP1;ratioP1;P1;durP2;ratioP2;P2;SDS_P1;SDS_P2;PMS_P1;PMS_P2;Temp;Humidity;BMP_temperature;BMP_pressure;BME280_temperature;BME280_humidity;BME280_pressure;Samples;Min_cycle;Max_cycle;Signal;HPM_P1;HPM_P2
2021/06/06 00:01:42;;;;;;;71.15;40.95;;;;;;;14.72;100.00;101787.09;4984505;28;20408;-84
2021/06/06 00:04:21;;;;;;;76.68;41.17;;;;;;;14.71;100.00;101780.03;4984523;28;20121;-84
2021/06/06 00:06:47;;;;;;;71.55;42.25;;;;;;;14.70;100.00;101778.31;4984619;28;20051;-86
2021/06/06 00:09:16;;;;;;;68.80;40.30;;;;;;;14.66;100.00;101777.81;4984323;28;20073;-84
2021/06/06 00:11:51;;;;;;;67.43;41.00;;;;;;;14.73;100.00;101778.84;4985178;28;20053;-85
2021/06/06 00:14:25;;;;;;;64.38;39.40;;;;;;;14.66;100.00;101783.22;4980577;28;20097;-85
2021/06/06 00:16:55;;;;;;;67.72;41.13;;;;;;;14.69;100.00;101776.63;4978861;28;20049;-84
2021/06/06 00:19:21;;;;;;;63.17;39.08;;;;;;;14.66;100.00;101773.25;4981668;28;20050;-85
2021/06/06 00:21:48;;;;;;;62.38;36.58;;;;;;;14.61;100.00;101770.19;4983427;28;20142;-87
2021/06/06 00:24:16;;;;;;;60.85;37.00;;;;;;;14.62;100.00;101787.28;4981390;28;20054;-85
2021/06/06 00:26:42;;;;;;;61.07;38.70;;;;;;;14.65;100.00;101781.53;4977937;28;21917;-86
2021/06/06 00:29:07;;;;;;;60.75;38.85;;;;;;;14.58;100.00;101786.72;4981991;28;20487;-85
2021/06/06 00:31:33;;;;;;;65.15;41.05;;;;;;;14.54;100.00;101774.59;4978002;28;20493;-84
2021/06/06 00:33:59;;;;;;;59.90;39.00;;;;;;;14.60;100.00;101789.28;4976379;28;20043;-88
2021/06/06 00:36:24;;;;;;;64.57;36.63;;;;;;;14.63;100.00;101784.38;4978724;28;20038;-84
2021/06/06 00:38:50;;;;;;;59.30;37.35;;;;;;;14.50;100.00;101781.31;4983663;28;20782;-86
2021/06/06 00:41:17;;;;;;;68.55;41.38;;;;;;;14.51;100.00;101788.38;4982273;28;20050;-83
2021/06/06 00:43:43;;;;;;;64.80;41.00;;;;;;;14.47;100.00;101795.13;4981628;28;20054;-84
2021/06/06 00:46:09;;;;;;;65.18;41.05;;;;;;;14.47;100.00;101789.72;4966148;28;20042;-84
2021/06/06 00:48:36;;;;;;;64.93;40.85;;;;;;;14.51;100.00;101795.66;4981180;28;20061;-86
2021/06/06 00:51:15;;;;;;;62.25;40.85;;;;;;;14.47;100.00;101792.41;4982070;28;20089;-85
2021/06/06 00:53:46;;;;;;;66.63;41.58;;;;;;;14.50;100.00;101789.41;4977661;28;20058;-84
2021/06/06 00:56:18;;;;;;;61.47;41.08;;;;;;;14.54;100.00;101793.50;4983431;28;20043;-89
2021/06/06 00:58:48;;;;;;;65.00;41.20;;;;;;;14.55;100.00;101791.63;4984053;28;20666;-85
2021/06/06 01:01:16;;;;;;;63.60;40.53;;;;;;;14.62;100.00;101795.38;4980353;28;20039;-84
2021/06/06 01:03:41;;;;;;;63.25;39.15;;;;;;;14.58;100.00;101797.53;4981982;28;20054;-84
2021/06/06 01:06:11;;;;;;;64.07;39.95;;;;;;;14.55;100.00;101795.16;4987209;28;20057;-84
2021/06/06 01:08:39;;;;;;;60.38;38.38;;;;;;;14.50;100.00;101802.91;4987885;28;20035;-85
2021/06/06 01:11:19;;;;;;;59.35;38.58;;;;;;;14.49;100.00;101798.50;4978772;28;20096;-85
2021/06/06 01:14:18;;;;;;;60.10;37.38;;;;;;;14.49;100.00;101793.09;4984204;28;20485;-89
2021/06/06 01:17:02;;;;;;;57.38;35.60;;;;;;;14.49;100.00;101792.25;4983429;28;20038;-84
2021/06/06 01:19:38;;;;;;;56.13;37.58;;;;;;;14.51;100.00;101788.38;4984365;28;20054;-84
2021/06/06 01:22:27;;;;;;;52.20;36.15;;;;;;;14.54;100.00;101798.91;4969880;28;20046;-84
2021/06/06 01:25:18;;;;;;;51.75;32.70;;;;;;;14.50;100.00;101802.03;4965384;28;20054;-89
2021/06/06 01:27:53;;;;;;;47.10;33.72;;;;;;;14.59;100.00;101795.72;4951746;28;20056;-84
2021/06/06 01:30:23;;;;;;;45.42;33.60;;;;;;;14.57;100.00;101795.03;4967181;28;20465;-88
2021/06/06 01:33:10;;;;;;;45.97;30.70;;;;;;;14.58;100.00;101799.41;4987619;28;20046;-85
2021/06/06 01:35:43;;;;;;;51.65;34.13;;;;;;;14.61;100.00;101791.81;4984848;28;20052;-84
2021/06/06 01:38:17;;;;;;;50.50;34.55;;;;;;;14.58;100.00;101796.69;4988403;28;20046;-88
2021/06/06 01:40:46;;;;;;;45.72;32.33;;;;;;;14.65;100.00;101795.88;4977360;28;20059;-86
2021/06/06 01:43:16;;;;;;;48.08;34.28;;;;;;;14.69;100.00;101796.38;4965767;28;20092;-85
2021/06/06 01:45:52;;;;;;;49.92;32.75;;;;;;;14.65;100.00;101793.19;4986438;28;20133;-85
2021/06/06 01:48:18;;;;;;;49.85;34.03;;;;;;;14.57;100.00;101795.84;4987672;28;20129;-84
2021/06/06 01:50:53;;;;;;;53.42;34.15;;;;;;;14.60;100.00;101795.53;4965788;28;20129;-86
2021/06/06 01:53:21;;;;;;;48.33;34.10;;;;;;;14.63;100.00;101794.34;4968561;28;20054;-84
2021/06/06 01:55:50;;;;;;;49.47;34.40;;;;;;;14.62;100.00;101796.22;4977880;28;20053;-84
2021/06/06 01:58:16;;;;;;;;;;;;;;;14.63;100.00;101797.91;4980285;28;20053;-85
2021/06/06 02:00:47;;;;;;;54.60;37.20;;;;;;;14.53;100.00;101797.22;4979819;28;19972;-85
2021/06/06 02:03:13;;;;;;;56.75;37.63;;;;;;;14.56;100.00;101796.88;4981515;28;20359;-87
2021/06/06 02:05:40;;;;;;;53.20;37.10;;;;;;;14.56;100.00;101787.94;4978611;28;20553;-86
2021/06/06 02:08:10;;;;;;;55.05;36.08;;;;;;;14.56;100.00;101785.25;4973667;28;20043;-89
2021/06/06 02:10:42;;;;;;;56.38;36.97;;;;;;;14.54;100.00;101785.38;4979595;28;20042;-87
2021/06/06 02:13:16;;;;;;;56.22;38.25;;;;;;;14.56;100.00;101786.06;4974079;28;20061;-88
2021/06/06 02:15:41;;;;;;;54.20;36.63;;;;;;;14.53;100.00;101782.84;4972837;28;20088;-85
2021/06/06 02:18:08;;;;;;;60.35;38.22;;;;;;;14.51;100.00;101779.44;4980002;28;20137;-85
2021/06/06 02:20:39;;;;;;;57.15;39.25;;;;;;;14.54;100.00;101787.25;4978069;28;20128;-86
2021/06/06 02:23:05;;;;;;;54.60;38.15;;;;;;;14.54;100.00;101801.59;4973955;28;20051;-86
2021/06/06 02:25:32;;;;;;;63.28;40.45;;;;;;;14.55;100.00;101795.16;4980668;28;20074;-84
2021/06/06 02:28:02;;;;;;;60.20;39.67;;;;;;;14.45;100.00;101794.47;4983071;28;20129;-89
2021/06/06 02:31:02;;;;;;;59.00;40.30;;;;;;;14.39;100.00;101790.56;4981816;28;20428;-86
2021/06/06 02:33:36;;;;;;;63.08;38.85;;;;;;;14.41;100.00;101787.69;4965722;28;20525;-88
2021/06/06 02:36:06;;;;;;;65.43;41.75;;;;;;;14.34;100.00;101784.81;4985055;28;20050;-84
2021/06/06 02:38:40;;;;;;;65.10;41.70;;;;;;;14.43;100.00;101789.22;4986735;28;20073;-86
2021/06/06 02:41:24;;;;;;;66.05;41.85;;;;;;;14.41;100.00;101790.38;4986327;28;20096;-88
2021/06/06 02:43:56;;;;;;;64.40;40.60;;;;;;;14.40;100.00;101794.09;4979434;28;20070;-85
2021/06/06 02:46:23;;;;;;;65.97;41.70;;;;;;;14.34;100.00;101786.66;4976713;28;20050;-85
2021/06/06 02:48:54;;;;;;;61.20;40.83;;;;;;;14.32;100.00;101785.97;4986621;28;20145;-85
2021/06/06 02:51:23;;;;;;;58.47;40.30;;;;;;;14.40;100.00;101788.69;4987401;28;20065;-85
2021/06/06 02:54:05;;;;;;;61.17;41.47;;;;;;;14.45;100.00;101779.09;4976528;28;20065;-85
2021/06/06 02:56:35;;;;;;;62.88;40.13;;;;;;;14.44;100.00;101785.53;4967033;28;20522;-84
2021/06/06 02:59:14;;;;;;;59.67;38.15;;;;;;;14.45;100.00;101780.97;4976560;28;20054;-87
2021/06/06 03:01:43;;;;;;;61.10;40.22;;;;;;;14.47;100.00;101784.31;4966073;28;20053;-85
2021/06/06 03:04:10;;;;;;;;;;;;;;;14.46;100.00;101785.34;4980945;28;20448;-87
2021/06/06 03:06:42;;;;;;;56.92;39.58;;;;;;;14.39;100.00;101781.63;4979477;28;19925;-89
2021/06/06 03:09:10;;;;;;;57.53;35.83;;;;;;;14.36;100.00;101782.78;4975305;28;20045;-85
2021/06/06 03:11:39;;;;;;;57.25;35.60;;;;;;;14.45;100.00;101778.25;4974025;28;20043;-85
2021/06/06 03:14:08;;;;;;;59.28;37.58;;;;;;;14.45;100.00;101780.97;4977251;28;20061;-86
2021/06/06 03:16:37;;;;;;;54.10;36.35;;;;;;;14.48;100.00;101780.63;4974816;28;20046;-91
2021/06/06 03:19:04;;;;;;;58.33;36.00;;;;;;;14.51;100.00;101784.84;4973188;28;20042;-85
2021/06/06 03:21:38;;;;;;;55.42;36.47;;;;;;;14.48;100.00;101785.19;4979074;28;20049;-88
2021/06/06 03:24:14;;;;;;;51.55;35.50;;;;;;;14.45;100.00;101780.97;4978657;28;20046;-84
2021/06/06 03:26:41;;;;;;;56.22;37.00;;;;;;;14.53;100.00;101782.84;4953868;28;20413;-85
2021/06/06 03:29:10;;;;;;;52.67;34.53;;;;;;;14.49;100.00;101787.72;4977553;28;20097;-85
2021/06/06 03:31:49;;;;;;;52.45;34.58;;;;;;;14.47;100.00;101783.47;4972798;28;20042;-85
2021/06/06 03:34:15;;;;;;;53.45;35.70;;;;;;;14.54;100.00;101782.69;4974028;28;20047;-88
2021/06/06 03:36:44;;;;;;;56.63;38.05;;;;;;;14.53;100.00;101788.25;4974016;28;20561;-85
2021/06/06 03:39:14;;;;;;;57.47;38.65;;;;;;;14.56;100.00;101788.78;4985293;28;20105;-87
2021/06/06 03:41:40;;;;;;;58.20;37.38;;;;;;;14.45;100.00;101787.19;4982323;28;20057;-87
2021/06/06 03:44:06;;;;;;;57.65;35.67;;;;;;;14.51;100.00;101782.16;4983966;28;20493;-85
2021/06/06 03:46:33;;;;;;;59.55;38.72;;;;;;;14.54;100.00;101780.00;4980764;28;20406;-85
2021/06/06 03:48:59;;;;;;;62.80;39.13;;;;;;;14.57;100.00;101776.13;4985304;28;20726;-85
2021/06/06 03:51:27;;;;;;;55.70;36.30;;;;;;;14.50;100.00;101772.34;4985274;28;20042;-85
2021/06/06 03:53:52;;;;;;;62.30;36.05;;;;;;;14.52;100.00;101776.59;4984296;28;20043;-86
2021/06/06 03:56:18;;;;;;;57.85;37.05;;;;;;;14.61;100.00;101774.75;4985316;28;20394;-84
2021/06/06 03:58:44;;;;;;;53.95;36.05;;;;;;;14.59;100.00;101774.09;4979590;28;20061;-84
2021/06/06 04:01:10;;;;;;;61.58;36.85;;;;;;;14.61;100.00;101778.28;4975816;28;20046;-85
2021/06/06 04:03:35;;;;;;;63.15;37.65;;;;;;;14.60;100.00;101784.72;4974398;28;20490;-85
2021/06/06 04:06:03;;;;;;;53.38;35.33;;;;;;;14.58;100.00;101792.13;4977051;28;20105;-84
2021/06/06 04:08:28;;;;;;;63.10;38.67;;;;;;;14.58;100.00;101785.91;4979088;28;20038;-88
2021/06/06 04:10:55;;;;;;;54.85;36.15;;;;;;;14.56;100.00;101796.88;4977602;28;20739;-85
2021/06/06 04:13:22;;;;;;;62.78;37.22;;;;;;;14.60;100.00;101782.03;4973695;28;20401;-87
2021/06/06 04:15:49;;;;;;;58.13;36.97;;;;;;;14.61;100.00;101789.09;4979737;28;20038;-86
2021/06/06 04:18:20;;;;;;;57.58;35.45;;;;;;;14.59;100.00;101783.03;4978115;28;20052;-87
2021/06/06 04:20:47;;;;;;;58.90;37.80;;;;;;;14.65;100.00;101787.78;4981271;28;20050;-89
2021/06/06 04:23:13;;;;;;;56.25;36.40;;;;;;;14.63;100.00;101783.53;4984954;28;20053;-84
2021/06/06 04:25:39;;;;;;;58.47;36.90;;;;;;;14.65;100.00;101776.13;4989445;28;20137;-85
2021/06/06 04:28:05;;;;;;;56.15;35.08;;;;;;;14.68;100.00;101778.50;4985304;28;20046;-84
2021/06/06 04:30:31;;;;;;;56.10;36.38;;;;;;;14.65;100.00;101782.38;4982772;28;20069;-87
2021/06/06 04:32:57;;;;;;;55.47;36.47;;;;;;;14.76;100.00;101772.22;4976907;28;20054;-86
2021/06/06 04:35:23;;;;;;;60.05;36.58;;;;;;;14.81;100.00;101778.81;4973936;28;20501;-85
2021/06/06 04:37:49;;;;;;;54.50;35.15;;;;;;;14.73;100.00;101777.97;4982819;28;20046;-86
2021/06/06 04:40:15;;;;;;;55.75;35.80;;;;;;;14.80;100.00;101773.59;4984210;28;20057;-87
2021/06/06 04:42:41;;;;;;;55.70;37.65;;;;;;;14.82;100.00;101771.59;4988536;28;20050;-90
2021/06/06 04:45:09;;;;;;;59.58;38.13;;;;;;;14.82;100.00;101777.84;4989918;28;20043;-85
2021/06/06 04:47:34;;;;;;;60.42;37.58;;;;;;;14.84;100.00;101785.75;4990066;28;20554;-85
2021/06/06 04:50:00;;;;;;;53.90;37.38;;;;;;;14.80;100.00;101781.72;4981271;28;20129;-85
2021/06/06 04:52:35;;;;;;;61.17;37.60;;;;;;;14.75;100.00;101781.34;4947779;28;20142;-86
2021/06/06 04:55:01;;;;;;;55.17;35.50;;;;;;;14.82;100.00;101787.81;4979039;28;20061;-84
2021/06/06 04:57:27;;;;;;;58.38;36.85;;;;;;;14.79;100.00;101778.16;4987040;28;20046;-89
2021/06/06 04:59:52;;;;;;;56.92;35.00;;;;;;;14.76;100.00;101785.75;4984803;28;20448;-86
2021/06/06 05:02:18;;;;;;;52.97;35.15;;;;;;;14.75;100.00;101782.19;4981972;28;20149;-86
2021/06/06 05:04:45;;;;;;;59.15;36.63;;;;;;;14.75;100.00;101789.47;4973478;28;20047;-91
2021/06/06 05:07:10;;;;;;;60.03;37.28;;;;;;;14.78;100.00;101797.25;4989677;28;20050;-85
2021/06/06 05:09:36;;;;;;;56.97;35.72;;;;;;;14.81;100.00;101791.50;4987953;28;20676;-86
2021/06/06 05:12:02;;;;;;;48.65;35.28;;;;;;;14.79;100.00;101782.72;4986747;28;20054;-85
2021/06/06 05:14:27;;;;;;;61.80;36.88;;;;;;;14.72;100.00;101777.13;4988563;28;20150;-86
2021/06/06 05:16:52;;;;;;;57.58;37.78;;;;;;;14.79;100.00;101777.31;4985116;28;20055;-86
2021/06/06 05:19:18;;;;;;;57.92;35.63;;;;;;;14.74;100.00;101785.94;4979135;28;20050;-85
2021/06/06 05:21:43;;;;;;;52.53;35.10;;;;;;;14.77;100.00;101784.75;4977121;28;20050;-85
2021/06/06 05:24:09;;;;;;;58.70;36.90;;;;;;;14.72;100.00;101789.81;4971706;28;20060;-86
2021/06/06 05:26:34;;;;;;;54.67;34.85;;;;;;;14.82;100.00;101790.50;4988374;28;20053;-85
2021/06/06 05:29:00;;;;;;;59.05;35.70;;;;;;;14.87;100.00;101782.72;4981773;28;20062;-85
2021/06/06 05:31:26;;;;;;;51.42;34.70;;;;;;;14.82;100.00;101788.63;4963448;28;20057;-90
2021/06/06 05:33:51;;;;;;;54.67;36.28;;;;;;;14.82;100.00;101790.50;4975495;28;20043;-85
2021/06/06 05:36:17;;;;;;;59.83;36.42;;;;;;;14.78;100.00;101775.63;4961895;28;20062;-85
2021/06/06 05:38:43;;;;;;;52.50;33.80;;;;;;;14.82;100.00;101787.81;4981711;28;20054;-87
2021/06/06 05:41:09;;;;;;;53.88;34.78;;;;;;;14.83;100.00;101784.91;4979675;28;20074;-86
2021/06/06 05:43:35;;;;;;;52.47;32.90;;;;;;;14.81;100.00;101792.34;4982950;28;20112;-90
2021/06/06 05:46:00;;;;;;;57.75;32.10;;;;;;;14.87;100.00;101790.81;4988246;28;20042;-85
2021/06/06 05:48:26;;;;;;;53.15;34.88;;;;;;;14.91;100.00;101794.06;4988353;28;20039;-85
2021/06/06 05:50:55;;;;;;;51.92;34.60;;;;;;;14.92;100.00;101788.47;4988196;28;20490;-86
2021/06/06 05:53:21;;;;;;;51.38;32.72;;;;;;;14.87;100.00;101805.19;4982884;28;20444;-84
2021/06/06 05:55:46;;;;;;;47.03;32.70;;;;;;;14.97;100.00;101796.06;4986200;28;20038;-89
2021/06/06 05:58:13;;;;;;;46.72;31.90;;;;;;;14.92;100.00;101810.09;4980520;28;20050;-85
2021/06/06 06:00:41;;;;;;;45.13;29.20;;;;;;;14.96;100.00;101808.75;4987779;28;20100;-85
2021/06/06 06:03:08;;;;;;;48.38;31.77;;;;;;;14.96;100.00;101808.75;4966235;28;20402;-85
2021/06/06 06:05:35;;;;;;;48.22;31.30;;;;;;;15.03;100.00;101815.16;4977653;28;20051;-85
2021/06/06 06:08:35;;;;;;;44.80;31.35;;;;;;;14.97;100.00;101807.72;4954211;28;20039;-86
2021/06/06 06:11:01;;;;;;;44.05;29.42;;;;;;;14.90;100.00;101812.09;4955272;28;20073;-85
2021/06/06 06:13:30;;;;;;;43.42;28.65;;;;;;;14.94;100.00;101816.16;4986137;28;20474;-85
2021/06/06 06:15:56;;;;;;;51.50;31.15;;;;;;;14.96;100.00;101811.47;4988057;28;20180;-86
2021/06/06 06:18:24;;;;;;;46.80;30.35;;;;;;;14.99;100.00;101818.34;4992435;28;20097;-86
2021/06/06 06:20:50;;;;;;;45.40;28.83;;;;;;;15.05;100.00;101813.13;4988994;28;20046;-90
2021/06/06 06:23:16;;;;;;;46.35;30.42;;;;;;;15.08;100.00;101807.38;4970160;28;20133;-88
2021/06/06 06:25:41;;;;;;;44.75;26.77;;;;;;;15.06;100.00;101814.81;4982871;28;20544;-87
2021/06/06 06:28:08;;;;;;;40.30;27.33;;;;;;;15.14;100.00;101823.97;4968884;28;20035;-85
2021/06/06 06:30:36;;;;;;;45.33;29.05;;;;;;;15.05;100.00;101818.53;4984601;28;20097;-85
2021/06/06 06:33:03;;;;;;;43.45;28.10;;;;;;;15.16;100.00;101811.09;4968660;28;20631;-84
2021/06/06 06:35:29;;;;;;;43.50;26.90;;;;;;;15.25;100.00;101815.50;4983936;28;20130;-85
2021/06/06 06:37:55;;;;;;;40.65;28.10;;;;;;;15.29;100.00;101816.84;4983528;28;20193;-84
2021/06/06 06:40:23;;;;;;;41.05;26.70;;;;;;;15.26;100.00;101818.03;4984626;28;20038;-85
2021/06/06 06:42:49;;;;;;;42.03;28.00;;;;;;;15.35;100.00;101805.34;4984694;28;20046;-87
2021/06/06 06:45:19;;;;;;;48.88;28.15;;;;;;;15.31;100.00;101818.38;4983911;28;20129;-87
2021/06/06 06:47:44;;;;;;;41.33;28.30;;;;;;;15.25;100.00;101810.94;4984460;28;20046;-90
2021/06/06 06:50:13;;;;;;;40.72;27.50;;;;;;;15.36;100.00;101812.44;4982843;28;20054;-85
2021/06/06 06:52:38;;;;;;;39.63;26.58;;;;;;;15.37;100.00;101811.44;4984277;28;20134;-83
2021/06/06 06:55:11;;;;;;;41.58;27.30;;;;;;;15.38;100.00;101813.09;4976595;28;20133;-85
2021/06/06 06:57:36;;;;;;;40.63;27.40;;;;;;;15.37;100.00;101816.00;4974805;28;20034;-83
2021/06/06 07:00:06;;;;;;;42.95;27.67;;;;;;;15.41;100.00;101820.03;4974795;28;20050;-85
2021/06/06 07:02:31;;;;;;;42.83;27.77;;;;;;;15.41;100.00;101823.59;4976110;28;20066;-84
2021/06/06 07:04:56;;;;;;;39.33;26.75;;;;;;;15.42;100.00;101828.00;4973046;28;20090;-86
2021/06/06 07:07:22;;;;;;;43.90;26.60;;;;;;;15.44;100.00;101830.50;4954380;28;20062;-86
2021/06/06 07:09:48;;;;;;;41.35;27.88;;;;;;;15.46;100.00;101832.03;4959690;28;20054;-89
2021/06/06 07:12:13;;;;;;;47.58;27.63;;;;;;;15.48;100.00;101831.88;4983848;28;20129;-86
2021/06/06 07:14:38;;;;;;;42.03;28.73;;;;;;;15.47;100.00;101836.41;4984719;28;20077;-85
2021/06/06 07:17:04;;;;;;;40.63;26.73;;;;;;;15.42;100.00;101824.41;4986643;28;20050;-87
2021/06/06 07:19:30;;;;;;;45.90;26.33;;;;;;;15.41;100.00;101837.09;4984732;28;20679;-86
2021/06/06 07:21:55;;;;;;;45.95;26.00;;;;;;;15.37;100.00;101841.19;4952101;28;20059;-86
2021/06/06 07:24:21;;;;;;;41.33;26.15;;;;;;;15.39;100.00;101831.00;4981354;28;20141;-90
2021/06/06 07:26:49;;;;;;;45.13;28.25;;;;;;;15.27;100.00;101826.97;4983884;28;20053;-85
2021/06/06 07:29:18;;;;;;;39.85;27.17;;;;;;;15.21;100.00;101831.19;4984083;28;20054;-86
2021/06/06 07:31:45;;;;;;;48.90;30.10;;;;;;;15.14;100.00;101829.38;4980766;28;20456;-86
2021/06/06 07:34:13;;;;;;;50.05;30.38;;;;;;;15.16;100.00;101830.00;4985324;28;20133;-85
2021/06/06 07:36:42;;;;;;;54.53;30.67;;;;;;;15.08;100.00;101834.44;4980167;28;20034;-86
2021/06/06 07:39:07;;;;;;;55.10;33.08;;;;;;;15.08;100.00;101831.72;4985109;28;20183;-85
2021/06/06 07:41:33;;;;;;;56.35;30.52;;;;;;;15.03;100.00;101842.19;4981973;28;20482;-86
2021/06/06 07:43:58;;;;;;;62.40;32.53;;;;;;;14.98;100.00;101847.25;4976669;28;20390;-85
2021/06/06 07:46:24;;;;;;;57.95;33.08;;;;;;;15.02;100.00;101842.38;4984599;28;20041;-91
2021/06/06 07:48:50;;;;;;;60.13;32.53;;;;;;;15.00;100.00;101839.81;4951836;28;20046;-84
2021/06/06 07:51:15;;;;;;;54.13;31.13;;;;;;;14.98;100.00;101847.25;4981741;28;20058;-84
2021/06/06 07:53:41;;;;;;;52.17;32.38;;;;;;;15.00;100.00;101849.78;4982230;28;20046;-85
2021/06/06 07:56:06;;;;;;;51.35;30.38;;;;;;;14.98;100.00;101849.09;4965208;28;20066;-85
2021/06/06 07:58:36;;;;;;;51.30;28.73;;;;;;;15.02;100.00;101843.22;4979655;28;20042;-86
2021/06/06 08:01:03;;;;;;;48.60;29.85;;;;;;;15.03;100.00;101844.88;4985441;28;20035;-83
2021/06/06 08:03:29;;;;;;;43.58;29.45;;;;;;;15.10;100.00;101850.47;4979588;28;20046;-85
2021/06/06 08:05:57;;;;;;;48.00;29.35;;;;;;;15.18;100.00;101847.75;4985035;28;20112;-86
2021/06/06 08:08:23;;;;;;;44.22;26.50;;;;;;;15.19;100.00;101844.06;4984737;28;20047;-84
2021/06/06 08:10:51;;;;;;;46.17;29.42;;;;;;;15.19;100.00;101837.78;4977704;28;20045;-85
2021/06/06 08:13:17;;;;;;;47.60;29.27;;;;;;;15.24;100.00;101840.84;4982543;28;20109;-86
2021/06/06 08:15:43;;;;;;;50.20;28.52;;;;;;;15.26;100.00;101845.06;4987852;28;20051;-86
2021/06/06 08:18:10;;;;;;;45.08;28.88;;;;;;;15.32;100.00;101841.69;4979890;28;20054;-87
2021/06/06 08:20:44;;;;;;;51.10;30.13;;;;;;;15.25;100.00;101837.97;4978904;28;20085;-88
2021/06/06 08:23:10;;;;;;;43.28;27.73;;;;;;;15.25;100.00;101842.53;4965158;28;20902;-86
2021/06/06 08:25:37;;;;;;;46.10;28.67;;;;;;;15.29;100.00;101843.88;4975886;28;20050;-85
2021/06/06 08:28:04;;;;;;;46.88;28.88;;;;;;;15.36;100.00;101844.88;4977735;28;20058;-84
2021/06/06 08:30:32;;;;;;;45.33;29.08;;;;;;;15.36;100.00;101842.19;4978434;28;20464;-85
2021/06/06 08:32:58;;;;;;;42.70;28.92;;;;;;;15.38;100.00;101834.75;4972496;28;20442;-86
2021/06/06 08:35:23;;;;;;;41.75;27.65;;;;;;;15.39;100.00;101838.28;4974877;28;20077;-85
2021/06/06 08:37:51;;;;;;;46.03;28.50;;;;;;;15.46;100.00;101833.91;4975723;28;20061;-86
2021/06/06 08:40:50;;;;;;;42.45;27.98;;;;;;;15.54;100.00;101840.16;4973973;28;20121;-85
2021/06/06 08:43:15;;;;;;;37.67;26.98;;;;;;;15.60;100.00;101840.47;4962607;28;20042;-85
2021/06/06 08:45:48;;;;;;;39.53;26.35;;;;;;;15.58;100.00;101841.47;4978647;28;20057;-86
2021/06/06 08:48:16;;;;;;;40.40;26.50;;;;;;;15.69;100.00;101844.88;4981633;28;20047;-87
2021/06/06 08:50:45;;;;;;;38.53;27.30;;;;;;;15.70;100.00;101854.69;4981157;28;20046;-86
2021/06/06 08:53:13;;;;;;;47.93;27.47;;;;;;;15.54;100.00;101856.38;4985108;28;20046;-85
2021/06/06 08:55:56;;;;;;;46.20;28.50;;;;;;;15.58;100.00;101851.47;4976650;28;20381;-84
2021/06/06 08:58:43;;;;;;;42.40;28.10;;;;;;;15.62;100.00;101846.53;4966058;28;20058;-86
2021/06/06 09:01:11;;;;;;;42.72;29.13;;;;;;;15.58;100.00;101864.97;4963764;28;20378;-85
2021/06/06 09:03:37;;;;;;;42.40;27.55;;;;;;;15.58;100.00;101864.97;4962094;28;20052;-85
2021/06/06 09:06:13;;;;;;;44.88;28.70;;;;;;;15.61;100.00;101861.94;4958382;28;21147;-86
2021/06/06 09:08:39;;;;;;;46.50;28.05;;;;;;;15.66;100.00;101858.72;4961888;28;20054;-87
2021/06/06 09:11:12;;;;;;;44.00;28.75;;;;;;;15.74;100.00;101864.16;4955646;28;20054;-86
2021/06/06 09:13:38;;;;;;;44.25;29.05;;;;;;;15.84;100.00;101858.53;4956560;28;20043;-84
2021/06/06 09:16:29;;;;;;;42.15;27.63;;;;;;;15.96;100.00;101868.81;4953875;28;20051;-87
2021/06/06 09:19:16;;;;;;;40.10;26.42;;;;;;;16.05;100.00;101871.50;4957597;28;20057;-86
2021/06/06 09:22:00;;;;;;;35.15;25.58;;;;;;;16.02;100.00;101876.28;4961462;28;20049;-85
2021/06/06 09:24:37;;;;;;;39.85;25.45;;;;;;;16.07;100.00;101866.78;4961467;28;20477;-85
2021/06/06 09:27:26;;;;;;;38.22;27.10;;;;;;;16.13;100.00;101866.06;4963277;28;20405;-86
2021/06/06 09:30:21;;;;;;;38.13;26.13;;;;;;;16.15;100.00;101867.59;4949635;28;20116;-86
2021/06/06 09:32:46;;;;;;;34.35;24.63;;;;;;;16.18;100.00;101866.41;4979401;28;20051;-86
2021/06/06 09:35:27;;;;;;;32.97;23.52;;;;;;;16.19;100.00;101863.50;4982214;28;20093;-85
2021/06/06 09:38:31;;;;;;;38.08;24.35;;;;;;;16.20;100.00;101864.38;4983580;28;20065;-85
2021/06/06 09:41:17;;;;;;;36.95;23.17;;;;;;;16.25;100.00;101870.06;4960329;28;20063;-86
2021/06/06 09:43:57;;;;;;;34.13;24.55;;;;;;;16.28;100.00;101877.00;4978572;28;20082;-86
2021/06/06 09:46:22;;;;;;;30.55;23.75;;;;;;;16.31;100.00;101869.38;4969327;28;20042;-85
2021/06/06 09:48:49;;;;;;;32.05;23.70;;;;;;;16.38;100.00;101867.66;4962259;28;20050;-86
2021/06/06 09:51:28;;;;;;;31.83;22.25;;;;;;;16.41;99.24;101877.31;4961157;28;20138;-89
2021/06/06 09:53:58;;;;;;;28.05;22.30;;;;;;;16.55;99.27;101879.25;4964694;28;20058;-87
2021/06/06 09:56:30;;;;;;;27.23;22.35;;;;;;;16.56;97.27;101874.69;4967703;28;20502;-85
2021/06/06 09:59:21;;;;;;;29.00;22.27;;;;;;;16.63;96.21;101881.06;4967665;28;20601;-85
2021/06/06 10:01:55;;;;;;;29.00;22.23;;;;;;;16.57;97.02;101884.50;4975131;28;20065;-85
2021/06/06 10:04:28;;;;;;;24.63;20.63;;;;;;;16.58;96.92;101876.19;4979628;28;20055;-85
2021/06/06 10:06:54;;;;;;;27.50;20.73;;;;;;;16.59;96.52;101882.47;4979264;28;20057;-87
2021/06/06 10:09:19;;;;;;;27.75;21.30;;;;;;;16.55;97.15;101878.44;4975787;28;20058;-87
2021/06/06 10:12:12;;;;;;;27.45;21.73;;;;;;;16.59;97.67;101887.88;4975033;28;20138;-84
2021/06/06 10:15:05;;;;;;;25.58;20.40;;;;;;;16.63;97.02;101894.63;4984034;28;20053;-86
2021/06/06 10:18:28;;;;;;;22.40;18.40;;;;;;;16.66;96.30;101895.13;4948670;28;20055;-85
2021/06/06 10:21:04;;;;;;;25.48;20.48;;;;;;;16.59;95.87;101885.16;4932297;28;20593;-87
2021/06/06 10:23:37;;;;;;;25.48;20.77;;;;;;;16.60;96.79;101892.25;4944500;28;20130;-86
2021/06/06 10:26:14;;;;;;;27.83;20.25;;;;;;;16.59;96.33;101888.72;4968627;28;20401;-84
2021/06/06 10:28:48;;;;;;;21.63;19.05;;;;;;;16.67;96.95;101891.38;4980276;28;20136;-86
2021/06/06 10:31:20;;;;;;;24.42;18.27;;;;;;;16.65;96.08;101890.72;4982974;28;20058;-85
2021/06/06 10:34:24;;;;;;;25.05;19.20;;;;;;;16.84;96.10;101892.19;4985993;28;20580;-86
2021/06/06 10:36:50;;;;;;;22.63;19.67;;;;;;;16.80;95.30;101890.84;4986768;28;20059;-85
2021/06/06 10:39:22;;;;;;;23.70;18.50;;;;;;;16.80;94.95;101899.00;4982289;28;20061;-87
2021/06/06 10:41:58;;;;;;;25.05;20.00;;;;;;;16.77;95.45;101895.75;4963002;28;20109;-85
2021/06/06 10:44:43;;;;;;;23.73;19.67;;;;;;;16.78;95.86;101892.88;4975498;28;20056;-88
2021/06/06 10:47:16;;;;;;;25.60;19.33;;;;;;;16.79;95.00;101894.56;4976167;28;20074;-86
2021/06/06 10:49:55;;;;;;;23.80;19.45;;;;;;;16.75;95.69;101895.94;4981359;28;20042;-85
2021/06/06 10:52:32;;;;;;;22.25;19.83;;;;;;;16.76;95.90;101891.34;4959153;28;20167;-85
2021/06/06 10:55:17;;;;;;;24.85;19.50;;;;;;;16.81;95.65;101895.25;4978020;28;20042;-86
2021/06/06 10:57:43;;;;;;;23.02;18.55;;;;;;;16.95;95.18;101890.09;4987343;28;20053;-90
2021/06/06 11:00:29;;;;;;;21.83;18.23;;;;;;;16.94;94.45;101889.22;4987575;28;20049;-87
2021/06/06 11:03:07;;;;;;;22.33;18.02;;;;;;;17.05;93.88;101890.69;4962208;28;20713;-86
2021/06/06 11:05:46;;;;;;;21.85;17.10;;;;;;;17.09;93.42;101881.16;4978054;28;20133;-88
2021/06/06 11:08:35;;;;;;;;;;;;;;;17.25;93.32;101883.75;4955230;28;20054;-86
2021/06/06 11:11:13;;;;;;;;;;;;;;;17.11;93.12;101890.78;4965737;28;20496;-85
2021/06/06 11:13:45;;;;;;;20.95;16.27;;;;;;;17.07;93.51;101881.34;4978078;28;19956;-85
2021/06/06 11:16:17;;;;;;;19.70;15.85;;;;;;;17.18;93.50;101885.50;4947329;28;20046;-86
2021/06/06 11:18:47;;;;;;;17.95;15.48;;;;;;;17.47;92.68;101875.78;4982031;28;20104;-86
2021/06/06 11:21:13;;;;;;;18.13;14.73;;;;;;;17.55;90.84;101879.25;4967332;28;20043;-86